Time;durP1;ratioP1;P1;durP2;ratioP2;P2;SDS_P1;SDS_P2;PMS_P1;PMS_P2;Temp;Humidity;BMP_temperature;BMP_pressure;BME280_temperature;BME280_humidity;BME280_pressure;Samples;Min_cycle;Max_cycle;Signal;HPM_P1;HPM_P2
2021/06/09 00:01:04;;;;;;;1.40;1.17;;;;;;;25.32;34.15;102208.84;4156947;28;20025;-59
2021/06/09 00:03:05;;;;;;;1.85;1.50;;;;;;;25.33;34.18;102218.91;4156207;28;20044;-59
2021/06/09 00:05:06;;;;;;;1.52;1.42;;;;;;;25.22;34.39;102208.91;4157664;28;20021;-59
2021/06/09 00:07:06;;;;;;;2.15;1.55;;;;;;;25.25;34.14;102220.38;4155178;28;20440;-59
2021/06/09 00:09:07;;;;;;;2.72;1.27;;;;;;;25.23;34.57;102205.00;4154583;28;20037;-59
2021/06/09 00:11:08;;;;;;;2.67;1.42;;;;;;;25.20;34.45;102214.81;4155038;28;20045;-61
2021/06/09 00:13:09;;;;;;;8.75;1.90;;;;;;;25.16;35.15;102210.88;4137067;28;20141;-60
2021/06/09 00:15:13;;;;;;;5.65;2.13;;;;;;;25.18;35.25;102218.97;4155431;28;20040;-60
2021/06/09 00:17:14;;;;;;;6.28;1.67;;;;;;;25.19;34.67;102215.06;4145520;28;20479;-60
2021/06/09 00:19:15;;;;;;;3.13;1.55;;;;;;;25.14;34.72;102218.72;4155476;28;20033;-60
2021/06/09 00:21:17;;;;;;;5.47;1.70;;;;;;;25.08;34.54;102212.31;4145795;28;20395;-62
2021/06/09 00:23:20;;;;;;;12.25;1.60;;;;;;;25.13;34.91;102213.41;4152962;28;20446;-61
2021/06/09 00:25:21;;;;;;;2.78;1.33;;;;;;;25.10;34.64;102217.63;4154519;28;20459;-60
2021/06/09 00:27:21;;;;;;;2.15;1.65;;;;;;;25.08;34.74;102217.91;4140360;28;20042;-60
2021/06/09 00:29:22;;;;;;;4.00;1.60;;;;;;;24.98;34.75;102212.38;4156893;28;20144;-63
2021/06/09 00:31:22;;;;;;;4.88;1.60;;;;;;;25.08;34.89;102219.88;4153405;28;20030;-60
2021/06/09 00:33:25;;;;;;;3.58;1.50;;;;;;;25.06;34.77;102213.75;4154122;28;20040;-60
2021/06/09 00:35:27;;;;;;;4.05;1.70;;;;;;;25.03;34.91;102223.56;4152653;28;20113;-60
2021/06/09 00:37:27;;;;;;;4.47;1.75;;;;;;;25.04;34.60;102224.38;4156427;28;20496;-60
2021/06/09 00:39:28;;;;;;;2.05;1.80;;;;;;;25.02;34.69;102218.25;4154596;28;20885;-60
2021/06/09 00:41:28;;;;;;;2.03;1.40;;;;;;;24.94;34.90;102214.91;4150560;28;20107;-62
2021/06/09 00:43:34;;;;;;;1.85;1.58;;;;;;;24.98;35.06;102225.53;4150155;28;20507;-60
2021/06/09 00:45:37;;;;;;;3.10;1.45;;;;;;;24.93;34.88;102221.66;4154648;28;20456;-60
2021/06/09 00:47:37;;;;;;;1.60;1.50;;;;;;;24.89;34.89;102220.53;4146828;28;20396;-60
2021/06/09 00:49:38;;;;;;;1.58;1.48;;;;;;;24.92;34.74;102217.16;4152782;28;20033;-60
2021/06/09 00:51:39;;;;;;;1.95;1.15;;;;;;;24.90;34.85;102222.22;4154415;28;20045;-60
2021/06/09 00:53:46;;;;;;;3.03;1.70;;;;;;;24.87;34.89;102219.16;4150089;28;20105;-60
2021/06/09 00:55:47;;;;;;;2.40;1.20;;;;;;;24.87;35.19;102217.19;4155745;28;20025;-60
2021/06/09 00:57:49;;;;;;;1.65;1.55;;;;;;;24.74;35.15;102210.25;4153690;28;20392;-59
2021/06/09 00:59:50;;;;;;;1.90;1.20;;;;;;;24.82;35.10;102211.59;4151864;28;20030;-60
2021/06/09 01:01:50;;;;;;;1.42;1.27;;;;;;;24.74;35.08;102210.25;4151675;28;20136;-59
2021/06/09 01:03:52;;;;;;;1.60;1.50;;;;;;;24.78;35.30;102218.94;4155403;28;20049;-60
2021/06/09 01:05:53;;;;;;;1.35;1.17;;;;;;;24.74;35.18;102210.25;4154030;28;20127;-60
2021/06/09 01:07:53;;;;;;;2.10;1.00;;;;;;;24.75;35.20;102211.09;4154470;28;20033;-60
2021/06/09 01:09:54;;;;;;;2.00;1.17;;;;;;;24.73;35.43;102207.72;4152547;28;20029;-60
2021/06/09 01:11:55;;;;;;;1.90;1.30;;;;;;;24.68;35.47;102208.59;4153812;28;20554;-60
2021/06/09 01:13:56;;;;;;;1.45;1.35;;;;;;;24.67;35.60;102206.94;4147706;28;20543;-60
2021/06/09 01:15:58;;;;;;;1.65;1.23;;;;;;;24.71;35.49;102210.81;4150410;28;20293;-60
2021/06/09 01:17:59;;;;;;;2.25;1.25;;;;;;;24.43;35.38;102175.91;4153738;28;20030;-59
2021/06/09 01:20:00;;;;;;;1.83;1.50;;;;;;;24.63;35.20;102203.00;4154307;28;20480;-59
2021/06/09 01:22:00;;;;;;;1.75;1.52;;;;;;;24.65;35.56;102211.97;4153959;28;20028;-59
2021/06/09 01:24:03;;;;;;;2.75;1.25;;;;;;;24.65;35.43;102211.97;4151553;28;20116;-60
2021/06/09 01:26:04;;;;;;;2.42;1.30;;;;;;;24.62;35.45;102208.91;4132619;28;20030;-60
2021/06/09 01:28:07;;;;;;;1.65;1.48;;;;;;;24.59;35.44;102215.91;4154759;28;20044;-60
2021/06/09 01:30:11;;;;;;;2.08;1.42;;;;;;;24.53;35.66;102209.47;4146164;28;20033;-60
2021/06/09 01:32:11;;;;;;;1.83;1.50;;;;;;;24.61;35.62;102210.00;4135959;28;20026;-61
2021/06/09 01:34:12;;;;;;;2.22;1.38;;;;;;;24.63;35.43;102211.41;4153817;28;20048;-59
2021/06/09 01:36:13;;;;;;;1.67;1.58;;;;;;;24.40;35.57;102187.66;4152847;28;20103;-59
2021/06/09 01:38:13;;;;;;;2.38;1.67;;;;;;;24.54;35.71;102210.28;4154737;28;20084;-60
2021/06/09 01:40:24;;;;;;;1.35;1.10;;;;;;;24.56;35.56;102213.63;4151176;28;20041;-60
2021/06/09 01:42:30;;;;;;;4.82;1.70;;;;;;;24.51;35.86;102208.88;4155705;28;20035;-60
2021/06/09 01:44:30;;;;;;;1.67;1.20;;;;;;;24.53;35.42;102211.41;4155005;28;20626;-59
2021/06/09 01:46:31;;;;;;;1.70;1.30;;;;;;;24.48;35.55;102217.84;4153643;28;20041;-60
2021/06/09 01:48:31;;;;;;;2.47;1.25;;;;;;;24.43;35.77;102200.25;4152339;28;20491;-60
2021/06/09 01:50:33;;;;;;;2.17;1.33;;;;;;;24.44;35.70;102211.19;4153986;28;20068;-59
2021/06/09 01:52:33;;;;;;;1.55;1.45;;;;;;;24.39;35.72;102208.38;4153669;28;20464;-60
2021/06/09 01:54:35;;;;;;;5.85;1.50;;;;;;;24.43;35.88;102203.06;4155390;28;20037;-60
2021/06/09 01:56:36;;;;;;;2.60;1.88;;;;;;;24.38;35.83;102210.34;4151202;28;20486;-60
2021/06/09 01:58:36;;;;;;;2.83;1.70;;;;;;;24.40;35.96;102205.28;4152883;28;20072;-61
2021/06/09 02:00:44;;;;;;;1.33;1.23;;;;;;;24.35;35.78;102204.47;4153511;28;20045;-60
2021/06/09 02:02:45;;;;;;;2.63;1.73;;;;;;;24.36;35.98;102208.94;4143672;28;20045;-60
2021/06/09 02:04:46;;;;;;;1.92;1.48;;;;;;;24.34;35.97;102202.78;4152125;28;20053;-62
2021/06/09 02:06:46;;;;;;;1.95;1.58;;;;;;;24.36;35.88;102203.34;4151596;28;20332;-61
2021/06/09 02:08:46;;;;;;;1.77;1.48;;;;;;;24.29;35.81;102202.81;4146658;28;20030;-61
2021/06/09 02:10:47;;;;;;;2.05;1.52;;;;;;;24.23;36.04;102196.38;4154299;28;21167;-61
2021/06/09 02:12:51;;;;;;;1.52;1.42;;;;;;;24.22;36.16;102203.94;4137021;28;20355;-61
2021/06/09 02:14:52;;;;;;;1.60;1.50;;;;;;;24.29;35.99;102194.44;4154552;28;20037;-59
2021/06/09 02:16:53;;;;;;;2.50;1.67;;;;;;;24.30;36.15;102208.13;4152679;28;20039;-59
2021/06/09 02:18:53;;;;;;;2.75;1.50;;;;;;;24.18;36.09;102194.44;4156418;28;20041;-59
2021/06/09 02:20:58;;;;;;;1.70;1.60;;;;;;;24.27;36.02;102202.25;4155176;28;20095;-59
2021/06/09 02:22:58;;;;;;;1.77;1.40;;;;;;;24.19;36.22;102198.06;4153643;28;20056;-60
2021/06/09 02:24:59;;;;;;;3.90;1.98;;;;;;;24.15;36.24;102200.59;4152501;28;20033;-59
2021/06/09 02:26:59;;;;;;;3.70;1.67;;;;;;;24.20;36.07;102200.59;4152168;28;20376;-59
2021/06/09 02:29:01;;;;;;;3.10;1.50;;;;;;;24.13;36.46;102200.06;4154023;28;20084;-59
2021/06/09 02:31:01;;;;;;;2.80;1.88;;;;;;;24.16;36.00;102193.91;4154852;28;20570;-59
2021/06/09 02:33:03;;;;;;;2.50;1.60;;;;;;;24.13;36.17;102200.06;4152554;28;20026;-59
2021/06/09 02:35:11;;;;;;;2.53;1.55;;;;;;;24.09;36.36;102196.13;4148524;28;20456;-59
2021/06/09 02:37:12;;;;;;;3.22;1.70;;;;;;;24.11;36.21;102195.84;4154466;28;20088;-59
2021/06/09 02:39:12;;;;;;;2.55;1.80;;;;;;;24.17;36.23;102192.75;4152950;28;20470;-59
2021/06/09 02:41:13;;;;;;;1.40;1.30;;;;;;;24.11;36.38;102196.69;4157502;28;20029;-59
2021/06/09 02:43:15;;;;;;;2.25;1.90;;;;;;;24.04;36.40;102188.59;4156867;28;20055;-59
2021/06/09 02:45:19;;;;;;;2.72;1.70;;;;;;;24.07;36.10;102184.41;4148651;28;20387;-59
2021/06/09 02:47:20;;;;;;;4.03;1.80;;;;;;;24.01;36.33;102189.16;4157649;28;20114;-60
2021/06/09 02:49:23;;;;;;;1.65;1.55;;;;;;;23.97;36.23;102178.81;4155996;28;20352;-60
2021/06/09 02:51:27;;;;;;;1.67;1.40;;;;;;;23.98;36.17;102181.31;4155113;28;20076;-60
2021/06/09 02:53:34;;;;;;;1.55;1.45;;;;;;;24.04;36.38;102179.38;4154894;28;20048;-60
2021/06/09 02:55:56;;;;;;;1.60;1.50;;;;;;;23.97;36.41;102179.66;4156117;28;20488;-60
2021/06/09 02:58:24;;;;;;;1.83;1.33;;;;;;;23.98;36.48;102180.50;4155451;28;20034;-60
2021/06/09 03:00:44;;;;;;;2.75;1.92;;;;;;;23.91;36.60;102189.13;4155150;28;20041;-60
2021/06/09 03:03:03;;;;;;;2.65;1.70;;;;;;;23.94;36.53;102179.34;4152550;28;20220;-60
2021/06/09 03:05:31;;;;;;;2.15;1.70;;;;;;;23.95;36.25;102186.63;4153406;28;20508;-61
2021/06/09 03:07:56;;;;;;;2.40;1.75;;;;;;;23.90;36.56;102184.69;4152940;28;20037;-62
2021/06/09 03:10:09;;;;;;;4.38;2.03;;;;;;;23.92;36.58;102184.41;4150281;28;20025;-61
2021/06/09 03:12:27;;;;;;;3.50;1.65;;;;;;;23.83;36.35;102172.94;4154290;28;20052;-61
2021/06/09 03:17:08;;;;;;;2.90;1.70;;;;;;;23.80;36.46;102182.69;4155445;28;20072;-63
2021/06/09 03:19:16;;;;;;;1.50;1.40;;;;;;;23.82;36.50;102185.22;4156645;28;20136;-62
2021/06/09 03:21:40;;;;;;;1.95;1.85;;;;;;;23.83;36.38;102181.31;4147239;28;20057;-63
2021/06/09 03:24:03;;;;;;;1.63;1.52;;;;;;;23.79;36.65;102178.25;4156120;28;20442;-63
2021/06/09 03:26:25;;;;;;;2.35;1.85;;;;;;;23.75;36.66;102176.28;4154268;28;20029;-63
2021/06/09 03:28:32;;;;;;;2.28;1.60;;;;;;;23.73;36.57;102182.16;4157424;28;20033;-62
2021/06/09 03:30:35;;;;;;;1.58;1.48;;;;;;;23.80;36.36;102185.50;4157345;28;20037;-62
2021/06/09 03:32:43;;;;;;;1.77;1.67;;;;;;;23.74;36.53;102183.81;4155341;28;20162;-62
2021/06/09 03:34:50;;;;;;;1.50;1.40;;;;;;;23.76;36.44;102184.41;4157039;28;20030;-61
2021/06/09 03:36:55;;;;;;;2.20;2.00;;;;;;;23.71;36.61;102173.22;4144753;28;20033;-61
2021/06/09 03:39:00;;;;;;;3.35;1.88;;;;;;;23.72;36.72;102183.28;4156361;28;20427;-63
2021/06/09 03:41:06;;;;;;;1.92;1.70;;;;;;;23.69;36.67;102181.03;4153871;28;20054;-61
2021/06/09 03:43:11;;;;;;;2.60;1.60;;;;;;;23.65;36.69;102169.59;4153321;28;20033;-59
2021/06/09 03:45:14;;;;;;;3.90;1.90;;;;;;;23.62;36.74;102177.69;4154321;28;20026;-60
2021/06/09 03:47:16;;;;;;;2.15;1.52;;;;;;;23.66;36.76;102176.00;4157211;28;20476;-60
2021/06/09 03:49:17;;;;;;;1.85;1.48;;;;;;;23.62;36.70;102174.88;4153489;28;20037;-60
2021/06/09 03:51:20;;;;;;;1.90;1.52;;;;;;;23.69;36.84;102178.25;4154347;28;20448;-60
2021/06/09 03:53:23;;;;;;;1.67;1.58;;;;;;;23.58;36.84;102159.81;4155439;28;20030;-60
2021/06/09 03:55:25;;;;;;;1.52;1.42;;;;;;;23.58;36.96;102157.00;4155856;28;20148;-61
2021/06/09 03:57:30;;;;;;;2.47;1.63;;;;;;;23.60;36.79;102165.94;4156180;28;20026;-60
2021/06/09 03:59:31;;;;;;;3.60;1.90;;;;;;;23.51;36.76;102151.69;4156947;28;20040;-60
2021/06/09 04:01:35;;;;;;;2.13;1.65;;;;;;;23.59;36.98;102153.94;4151191;28;20033;-61
2021/06/09 04:03:39;;;;;;;2.03;1.80;;;;;;;23.60;36.84;102169.56;4150511;28;20046;-60
2021/06/09 04:05:42;;;;;;;2.97;1.45;;;;;;;23.55;36.94;102157.56;4153858;28;20079;-61
2021/06/09 04:07:47;;;;;;;1.70;1.60;;;;;;;23.57;36.89;102166.50;4152206;28;20286;-59
2021/06/09 04:09:48;;;;;;;2.60;2.15;;;;;;;23.55;36.80;102161.19;4151220;28;20045;-61
2021/06/09 04:12:01;;;;;;;3.13;1.65;;;;;;;23.58;37.05;102154.22;4156508;28;20461;-61
2021/06/09 04:14:03;;;;;;;1.77;1.67;;;;;;;23.56;36.91;102156.44;4158064;28;20084;-61
2021/06/09 04:16:06;;;;;;;1.67;1.58;;;;;;;23.58;37.09;102160.63;4154962;28;20107;-60
2021/06/09 04:18:08;;;;;;;2.03;1.45;;;;;;;23.57;36.83;102163.72;4149186;28;20516;-61
2021/06/09 04:20:11;;;;;;;2.75;1.95;;;;;;;23.52;36.78;102157.00;4151858;28;20037;-60
2021/06/09 04:22:12;;;;;;;1.60;1.50;;;;;;;23.57;36.74;102169.31;4137272;28;20358;-61
2021/06/09 04:24:12;;;;;;;1.73;1.50;;;;;;;23.50;36.84;102167.63;4151596;28;20038;-60
2021/06/09 04:26:15;;;;;;;3.67;1.67;;;;;;;23.57;36.95;102161.75;4155274;28;20034;-60
2021/06/09 04:28:19;;;;;;;1.60;1.50;;;;;;;23.56;36.85;102171.28;4152133;28;20484;-60
2021/06/09 04:30:21;;;;;;;1.73;1.48;;;;;;;23.50;37.21;102166.78;4149673;28;20176;-61
2021/06/09 04:32:22;;;;;;;1.75;1.65;;;;;;;23.50;36.93;102156.44;4153005;28;20025;-60
2021/06/09 04:34:23;;;;;;;1.60;1.50;;;;;;;23.55;37.02;102160.38;4156820;28;20396;-60
2021/06/09 04:36:24;;;;;;;1.70;1.60;;;;;;;23.55;37.18;102165.97;4152569;28;20037;-61
2021/06/09 04:38:25;;;;;;;1.80;1.70;;;;;;;23.44;37.25;102163.16;4155847;28;20912;-60
2021/06/09 04:40:27;;;;;;;2.78;1.50;;;;;;;23.48;36.97;102172.66;4149127;28;20378;-60
2021/06/09 04:42:28;;;;;;;2.03;1.67;;;;;;;23.50;37.05;102164.84;4152674;28;20033;-60
2021/06/09 04:44:28;;;;;;;2.00;1.80;;;;;;;23.35;37.20;102139.69;4156312;28;20053;-60
2021/06/09 04:46:29;;;;;;;1.98;1.88;;;;;;;23.45;36.98;102153.66;4151787;28;20049;-60
2021/06/09 04:48:30;;;;;;;1.90;1.80;;;;;;;23.40;37.21;102150.00;4155640;28;20033;-60
2021/06/09 04:50:30;;;;;;;1.90;1.80;;;;;;;23.46;37.29;102157.28;4154192;28;20041;-60
2021/06/09 04:52:30;;;;;;;2.25;1.95;;;;;;;23.45;37.27;102156.44;4150352;28;20033;-60
2021/06/09 04:54:31;;;;;;;1.83;1.73;;;;;;;23.39;37.24;102146.38;4154866;28;20140;-60
2021/06/09 04:56:34;;;;;;;1.80;1.70;;;;;;;23.42;37.22;102150.56;4149657;28;20036;-59
2021/06/09 04:58:34;;;;;;;2.30;1.85;;;;;;;23.46;37.29;102144.13;4153257;28;20079;-60
2021/06/09 05:00:35;;;;;;;1.90;1.60;;;;;;;23.48;37.27;102155.03;4153350;28;20033;-60
2021/06/09 05:02:35;;;;;;;2.35;2.13;;;;;;;23.45;37.40;102156.44;4147595;28;20081;-61
2021/06/09 05:04:36;;;;;;;2.10;1.90;;;;;;;23.48;37.24;102149.44;4153104;28;20029;-56
2021/06/09 05:06:36;;;;;;;1.60;1.50;;;;;;;23.40;37.00;102142.47;4153060;28;20041;-60
2021/06/09 05:08:37;;;;;;;2.63;1.83;;;;;;;23.29;37.42;102126.78;4141509;28;20052;-60
2021/06/09 05:10:40;;;;;;;2.60;1.80;;;;;;;23.51;37.46;102152.53;4153122;28;20037;-61
2021/06/09 05:12:51;;;;;;;1.98;1.80;;;;;;;23.46;37.47;102151.69;4151739;28;20091;-59
2021/06/09 05:15:00;;;;;;;2.25;1.40;;;;;;;23.45;37.56;102139.69;4148874;28;20125;-59
2021/06/09 05:17:01;;;;;;;3.58;1.73;;;;;;;23.45;37.48;102134.09;4154036;28;20116;-59
2021/06/09 05:19:03;;;;;;;1.75;1.65;;;;;;;23.52;37.43;102148.59;4147938;28;20416;-59
2021/06/09 05:21:04;;;;;;;3.92;1.80;;;;;;;23.51;37.57;102146.97;4155156;28;20040;-60
2021/06/09 05:23:13;;;;;;;1.95;1.50;;;;;;;23.54;37.30;102147.50;4147248;28;20520;-59
2021/06/09 05:25:14;;;;;;;2.83;1.83;;;;;;;23.50;37.42;102141.66;4153259;28;20080;-57
2021/06/09 05:27:18;;;;;;;2.00;1.80;;;;;;;23.52;37.53;102145.81;4149622;28;20045;-55
2021/06/09 05:29:19;;;;;;;2.90;1.70;;;;;;;23.41;37.55;102127.38;4153955;28;20044;-56
2021/06/09 05:31:20;;;;;;;2.28;1.85;;;;;;;23.57;37.59;102144.97;4154528;28;20029;-56
2021/06/09 05:33:22;;;;;;;3.13;1.60;;;;;;;23.60;37.44;102151.97;4155855;28;20304;-60
2021/06/09 05:35:24;;;;;;;2.05;1.70;;;;;;;23.59;37.44;102150.28;4154376;28;20140;-61
2021/06/09 05:37:25;;;;;;;2.72;1.67;;;;;;;23.56;37.70;102146.13;4156082;28;20632;-61
2021/06/09 05:39:25;;;;;;;2.10;1.83;;;;;;;23.56;37.84;102143.31;4145119;28;20058;-59
2021/06/09 05:41:26;;;;;;;1.63;1.52;;;;;;;23.58;37.81;102141.06;4154707;28;20052;-59
2021/06/09 05:43:28;;;;;;;2.60;2.20;;;;;;;23.61;37.78;102148.06;4152953;28;20974;-57
2021/06/09 05:45:31;;;;;;;3.08;1.77;;;;;;;23.63;37.67;102148.63;4150970;28;20091;-59
2021/06/09 05:47:37;;;;;;;2.75;1.60;;;;;;;23.57;37.41;102142.19;4154489;28;20037;-57
2021/06/09 05:49:38;;;;;;;1.70;1.60;;;;;;;23.49;37.72;102129.59;4156163;28;20034;-59
2021/06/09 05:51:38;;;;;;;4.45;1.58;;;;;;;23.67;37.27;102147.78;4152868;28;20037;-58
2021/06/09 05:53:39;;;;;;;1.92;1.70;;;;;;;23.72;37.16;102146.94;4154059;28;20038;-59
2021/06/09 05:55:40;;;;;;;2.95;1.38;;;;;;;23.68;37.19;102143.88;4154604;28;20048;-58
2021/06/09 05:57:41;;;;;;;2.55;1.40;;;;;;;23.69;36.86;102156.72;4153553;28;20025;-60
2021/06/09 05:59:42;;;;;;;3.10;1.27;;;;;;;23.72;36.98;102149.72;4152938;28;20395;-59
2021/06/09 06:01:44;;;;;;;1.30;1.20;;;;;;;23.73;37.02;102156.16;4152713;28;20037;-57
2021/06/09 06:03:45;;;;;;;1.55;1.40;;;;;;;23.76;36.92;102148.06;4150645;28;20029;-58
2021/06/09 06:05:49;;;;;;;2.08;1.60;;;;;;;23.78;36.68;102151.41;4152954;28;20165;-59
2021/06/09 06:07:53;;;;;;;1.63;1.52;;;;;;;23.74;36.72;102150.28;4155605;28;20094;-58
2021/06/09 06:09:53;;;;;;;2.30;1.60;;;;;;;23.69;36.38;102151.13;4154421;28;20029;-59
2021/06/09 06:11:54;;;;;;;2.70;1.38;;;;;;;23.49;36.39;102143.56;4156531;28;20053;-57
2021/06/09 06:13:54;;;;;;;1.80;1.70;;;;;;;23.42;37.02;102147.78;4158735;28;20040;-59
2021/06/09 06:15:57;;;;;;;1.48;1.38;;;;;;;23.50;36.63;102152.81;4150742;28;20030;-59
2021/06/09 06:17:57;;;;;;;1.38;1.27;;;;;;;23.52;36.74;102145.00;4155086;28;20577;-59
2021/06/09 06:19:58;;;;;;;1.83;1.50;;;;;;;23.47;36.23;102140.22;4156414;28;20034;-59
2021/06/09 06:21:58;;;;;;;1.92;1.73;;;;;;;23.48;37.34;102139.13;4156801;28;20034;-54
2021/06/09 06:23:59;;;;;;;1.83;1.40;;;;;;;23.50;36.84;102138.84;4158108;28;20099;-55
2021/06/09 06:26:00;;;;;;;1.80;1.70;;;;;;;23.46;36.77;102141.34;4156239;28;20029;-56
2021/06/09 06:28:01;;;;;;;1.88;1.70;;;;;;;23.50;36.49;102148.06;4155879;28;20573;-59
2021/06/09 06:30:03;;;;;;;2.10;1.90;;;;;;;23.47;36.64;102143.03;4157217;28;20040;-60
2021/06/09 06:32:08;;;;;;;3.15;2.67;;;;;;;23.22;37.85;102145.75;4150237;28;20026;-59
2021/06/09 06:34:10;;;;;;;3.40;3.10;;;;;;;22.86;39.01;102154.91;4153133;28;20570;-60
2021/06/09 06:36:12;;;;;;;2.28;2.08;;;;;;;23.34;36.92;102138.00;4151497;28;20041;-59
2021/06/09 06:38:13;;;;;;;3.75;3.40;;;;;;;23.15;38.32;102143.25;4153248;28;20058;-58
2021/06/09 06:40:18;;;;;;;2.70;2.50;;;;;;;23.47;36.69;102148.63;4155642;28;20041;-58
2021/06/09 06:42:19;;;;;;;1.83;1.73;;;;;;;23.46;36.53;102149.72;4155430;28;20029;-59
2021/06/09 06:44:20;;;;;;;2.58;2.15;;;;;;;23.48;37.27;102149.44;4156776;28;20033;-56
2021/06/09 06:46:20;;;;;;;4.28;1.90;;;;;;;23.46;37.58;102146.94;4156338;28;20088;-59
2021/06/09 06:48:22;;;;;;;7.72;2.38;;;;;;;23.49;37.14;102151.97;4158391;28;20044;-59
2021/06/09 06:50:24;;;;;;;7.03;2.55;;;;;;;23.50;37.54;102148.06;4153529;28;20035;-59
2021/06/09 06:52:30;;;;;;;8.57;2.10;;;;;;;23.49;39.10;102154.75;4134436;28;20030;-59
2021/06/09 06:54:30;;;;;;;5.72;2.60;;;;;;;23.59;37.91;102150.28;4152094;28;20161;-59
2021/06/09 06:56:33;;;;;;;9.73;2.85;;;;;;;23.51;39.99;102148.88;4153950;28;20491;-59
2021/06/09 06:58:34;;;;;;;10.00;2.67;;;;;;;23.61;38.43;102156.47;4154449;28;20574;-55
2021/06/09 07:00:35;;;;;;;5.63;3.78;;;;;;;23.49;39.91;102151.97;4151645;28;20029;-51
2021/06/09 07:02:37;;;;;;;7.75;3.80;;;;;;;23.51;39.14;102144.16;4155330;28;20034;-57
2021/06/09 07:04:38;;;;;;;9.80;3.67;;;;;;;23.63;39.17;102154.22;4154674;28;20041;-51
2021/06/09 07:06:41;;;;;;;8.45;3.15;;;;;;;23.69;38.38;102159.50;4155040;28;20586;-54
2021/06/09 07:08:43;;;;;;;7.60;3.78;;;;;;;23.60;39.74;102144.41;4151075;28;20099;-55
2021/06/09 07:10:44;;;;;;;9.77;3.50;;;;;;;23.62;39.43;102152.53;4151049;28;20111;-54
2021/06/09 07:12:45;;;;;;;6.20;3.53;;;;;;;23.76;38.58;102153.66;4154798;28;20101;-56
2021/06/09 07:14:46;;;;;;;5.28;3.38;;;;;;;23.80;38.90;102159.50;4156526;28;20128;-53
2021/06/09 07:16:48;;;;;;;9.25;3.53;;;;;;;23.72;39.56;102165.69;4157113;28;20496;-56
2021/06/09 07:18:50;;;;;;;7.88;3.78;;;;;;;23.78;39.95;102167.34;4155139;28;20122;-54
2021/06/09 07:20:50;;;;;;;8.20;4.25;;;;;;;23.59;40.23;102155.88;4156747;28;20033;-54
2021/06/09 07:22:52;;;;;;;11.48;4.20;;;;;;;23.73;39.84;102164.53;4154729;28;20035;-54
2021/06/09 07:24:53;;;;;;;8.85;3.95;;;;;;;23.78;39.54;102162.59;4156694;28;20042;-57
2021/06/09 07:26:56;;;;;;;10.10;3.97;;;;;;;23.96;39.40;102164.00;4154906;28;20381;-56
2021/06/09 07:28:59;;;;;;;5.80;3.08;;;;;;;23.87;39.06;102157.28;4155824;28;20033;-54
2021/06/09 07:31:00;;;;;;;8.55;3.67;;;;;;;23.94;39.76;102162.56;4157869;28;20119;-55
2021/06/09 07:33:04;;;;;;;9.65;4.03;;;;;;;23.93;40.01;102155.28;4157409;28;20757;-52
2021/06/09 07:35:06;;;;;;;7.97;3.70;;;;;;;23.94;39.41;102157.81;4156217;28;20713;-54
2021/06/09 07:37:13;;;;;;;7.85;4.32;;;;;;;23.83;40.40;102156.16;4159397;28;20029;-54
2021/06/09 07:39:31;;;;;;;8.30;5.22;;;;;;;23.86;39.89;102159.22;4157442;28;20033;-56
2021/06/09 07:41:34;;;;;;;7.90;3.88;;;;;;;24.00;39.31;102155.88;4154531;28;20034;-52
2021/06/09 07:43:40;;;;;;;10.75;4.47;;;;;;;24.08;39.41;102158.09;4157317;28;20041;-55
2021/06/09 07:45:41;;;;;;;7.47;3.72;;;;;;;24.12;39.43;102162.00;4153891;28;20508;-56
2021/06/09 07:47:46;;;;;;;9.13;3.42;;;;;;;24.07;39.78;102162.03;4153755;28;20119;-56
2021/06/09 07:49:49;;;;;;;10.65;4.78;;;;;;;24.00;40.31;102169.84;4154449;28;20095;-55
2021/06/09 07:51:50;;;;;;;8.07;4.57;;;;;;;24.16;39.51;102160.31;4153677;28;20050;-53
2021/06/09 07:53:57;;;;;;;5.15;4.13;;;;;;;24.23;39.29;102163.66;4156418;28;20123;-50
2021/06/09 07:55:59;;;;;;;9.23;5.13;;;;;;;24.20;40.07;102164.22;4158323;28;20067;-56
2021/06/09 07:58:02;;;;;;;8.23;4.07;;;;;;;24.23;39.73;102162.81;4156808;28;20033;-55
2021/06/09 08:00:07;;;;;;;4.78;3.58;;;;;;;24.24;39.83;102164.50;4158474;28;20036;-55
2021/06/09 08:02:08;;;;;;;7.85;4.50;;;;;;;24.25;39.71;102163.34;4155165;28;20062;-59
2021/06/09 08:04:10;;;;;;;7.25;5.95;;;;;;;24.18;40.06;102177.66;4157090;28;20033;-58
2021/06/09 08:06:14;;;;;;;7.78;5.28;;;;;;;24.19;39.56;102164.50;4153277;28;20029;-59
2021/06/09 08:08:14;;;;;;;10.35;6.45;;;;;;;24.04;39.53;102174.59;4156904;28;20144;-59
2021/06/09 08:10:15;;;;;;;14.73;8.77;;;;;;;24.00;39.49;102172.66;4156591;28;20056;-56
2021/06/09 08:12:17;;;;;;;13.02;8.00;;;;;;;24.12;39.37;102169.56;4157079;28;20389;-58
2021/06/09 08:14:20;;;;;;;13.57;7.72;;;;;;;24.14;38.72;102170.94;4159586;28;20029;-52
2021/06/09 08:16:21;;;;;;;11.40;7.40;;;;;;;24.22;38.85;102166.72;4156988;28;20056;-52
2021/06/09 08:18:21;;;;;;;15.15;8.05;;;;;;;24.27;38.51;102163.94;4154609;28;20029;-54
2021/06/09 08:20:24;;;;;;;9.93;7.95;;;;;;;24.11;38.90;102163.13;4158750;28;20135;-52
2021/06/09 08:22:24;;;;;;;12.80;8.25;;;;;;;24.19;38.47;102184.06;4156329;28;20042;-54
2021/06/09 08:24:25;;;;;;;11.25;7.10;;;;;;;24.35;38.56;102179.31;4155544;28;20099;-52
2021/06/09 08:26:26;;;;;;;12.27;8.13;;;;;;;24.35;38.65;102179.31;4152247;28;20049;-54
2021/06/09 08:28:28;;;;;;;12.38;6.78;;;;;;;24.37;38.62;102188.25;4154338;28;20042;-56
2021/06/09 08:30:29;;;;;;;12.18;6.57;;;;;;;24.37;38.41;102177.88;4157890;28;20045;-56
2021/06/09 08:32:29;;;;;;;13.85;6.70;;;;;;;24.37;38.73;102186.25;4157034;28;20407;-57
2021/06/09 08:34:30;;;;;;;10.57;7.03;;;;;;;24.39;38.32;102181.25;4154270;28;20034;-59
2021/06/09 08:36:32;;;;;;;8.75;6.03;;;;;;;24.42;38.37;102185.41;4150044;28;20111;-49
2021/06/09 08:38:33;;;;;;;11.80;6.53;;;;;;;24.45;38.17;102187.63;4153498;28;20204;-60
2021/06/09 08:40:33;;;;;;;7.53;6.13;;;;;;;24.57;38.43;102192.94;4154239;28;20025;-53
2021/06/09 08:42:36;;;;;;;8.50;5.88;;;;;;;24.63;37.76;102185.38;4157394;28;20044;-55
2021/06/09 08:44:40;;;;;;;7.82;5.50;;;;;;;24.61;37.90;102187.63;4152779;28;20088;-54
2021/06/09 08:46:41;;;;;;;6.10;5.03;;;;;;;24.64;37.56;102192.63;4151752;28;20567;-55
2021/06/09 08:48:45;;;;;;;8.27;5.00;;;;;;;24.71;37.96;102193.19;4154536;28;20083;-59
2021/06/09 08:50:48;;;;;;;7.72;5.45;;;;;;;24.68;37.75;102199.34;4154475;28;20025;-58
2021/06/09 08:52:51;;;;;;;8.02;5.18;;;;;;;24.62;37.53;102181.72;4158431;28;20024;-55
2021/06/09 08:54:51;;;;;;;8.05;5.00;;;;;;;24.52;38.16;102185.38;4155472;28;20099;-57
2021/06/09 08:56:52;;;;;;;8.50;5.50;;;;;;;24.61;37.65;102193.22;4154453;28;20037;-53
2021/06/09 08:58:54;;;;;;;6.20;5.43;;;;;;;24.71;37.60;102188.41;4140643;28;20042;-55
2021/06/09 09:00:55;;;;;;;7.95;5.53;;;;;;;24.58;37.33;102181.47;4153932;28;20108;-54
2021/06/09 09:02:57;;;;;;;7.82;4.65;;;;;;;24.73;37.36;102191.78;4158803;28;20021;-52
2021/06/09 09:04:58;;;;;;;6.18;4.70;;;;;;;24.80;37.18;102199.88;4136767;28;20044;-53
2021/06/09 09:07:00;;;;;;;6.70;4.63;;;;;;;24.69;37.07;102179.47;4153154;28;20044;-55
2021/06/09 09:09:03;;;;;;;5.22;4.30;;;;;;;24.82;36.63;102196.78;4158728;28;20478;-55
2021/06/09 09:11:04;;;;;;;8.20;5.05;;;;;;;24.83;36.74;102198.47;4152701;28;20029;-56
2021/06/09 09:13:05;;;;;;;6.10;4.55;;;;;;;24.90;36.43;102184.97;4158115;28;20032;-54
2021/06/09 09:15:06;;;;;;;6.15;4.15;;;;;;;24.91;36.77;102187.47;4156133;28;20064;-56
2021/06/09 09:17:11;;;;;;;6.88;3.75;;;;;;;25.00;36.50;102196.13;4155292;28;20049;-54
2021/06/09 09:19:28;;;;;;;6.20;3.97;;;;;;;24.98;36.27;102197.53;4153761;28;20030;-54
2021/06/09 09:21:35;;;;;;;9.45;4.43;;;;;;;25.02;36.30;102193.03;4154817;28;20468;-53
2021/06/09 09:23:44;;;;;;;6.55;3.75;;;;;;;25.01;36.21;102199.75;4154930;28;20847;-49
2021/06/09 09:25:45;;;;;;;6.18;3.75;;;;;;;25.03;36.29;102201.16;4156189;28;20033;-50
2021/06/09 09:28:00;;;;;;;4.80;3.38;;;;;;;25.05;35.97;102190.47;4155297;28;20041;-59
2021/06/09 09:30:06;;;;;;;6.40;4.05;;;;;;;25.06;36.15;102197.75;4155963;28;20033;-59
2021/06/09 09:32:07;;;;;;;6.53;3.30;;;;;;;25.16;35.97;102202.47;4154962;28;20036;-56
2021/06/09 09:34:36;;;;;;;5.45;3.30;;;;;;;25.06;35.87;102200.56;4151765;28;20452;-54